PWSweather.com
Personal Weather Stations
Station Observations
ALMOSTER
Urb. Mas Carreras, AlmosterES 43393

Urb. Mas CarrerasAlmosterES 43393

Lat: 41.1908333333, Lon: 1.1086111111

Elevation: 836.6

Station Type: Davis Vantage Pro 2

http://www.meteoalmoster.net

High Low Average
Temperature 66.2°F19.0°C 50.9°F10.5°C 56.7°F13.7°C
Dew Point 50.7°F10.4°C 43.5°F6.4°C 47.3°F8.5°C
Winds 7.0 mph 11.3 kmh Calm Calm 2.0 mph SSE3.2 kmh SSE
Wind Gusts 20.0 mph32.2 kmh 1.0 mph1.6 kmh 6.0 mph9.7 kmh
Humidity 88% 54% 71%
Pressure 30.32 in1026.8 mb 30.21 in1023.0 mb -
Precipitation 0.00 in0.0 mm - -
Hour Temp Dew Point Humidity Winds Wind Gusts Pressure Precip Precip Rate Daily Precip Total
12:00 AM 55.8°F13.2°C 46.8°F8.2°C 72% 2.0 mph SSE3.2 kmh SSE 7.0 mph11.3 kmh 30.23 in1023.7 mb 0.00 in0.0 mm 0.00 in0.0 mm 0.00 in0.0 mm
12:30 AM 56.5°F13.6°C 46.4°F8.0°C 69% 1.0 mph NE1.6 kmh NE 8.0 mph12.9 kmh 30.23 in1023.7 mb 0.00 in0.0 mm 0.00 in0.0 mm 0.00 in0.0 mm
01:00 AM 55.9°F13.3°C 46.8°F8.2°C 71% 4.0 mph NE6.4 kmh NE 13.0 mph20.9 kmh 30.22 in1023.4 mb 0.00 in0.0 mm 0.00 in0.0 mm 0.00 in0.0 mm
01:30 AM 55.4°F13.0°C 46.6°F8.1°C 72% 6.0 mph NE9.7 kmh NE 18.0 mph29.0 kmh 30.22 in1023.4 mb 0.00 in0.0 mm 0.00 in0.0 mm 0.00 in0.0 mm
02:00 AM 54.9°F12.7°C 46.2°F7.9°C 73% 6.0 mph NNE9.7 kmh NNE 20.0 mph32.2 kmh 30.21 in1023.0 mb 0.00 in0.0 mm 0.00 in0.0 mm 0.00 in0.0 mm
02:30 AM 56.1°F13.4°C 46.2°F7.9°C 69% 7.0 mph NE11.3 kmh NE 18.0 mph29.0 kmh 30.22 in1023.4 mb 0.00 in0.0 mm 0.00 in0.0 mm 0.00 in0.0 mm
03:00 AM 54.0°F12.2°C 45.5°F7.5°C 73% 1.0 mph NNE1.6 kmh NNE 4.0 mph6.4 kmh 30.22 in1023.4 mb 0.00 in0.0 mm 0.00 in0.0 mm 0.00 in0.0 mm
03:30 AM 54.7°F12.6°C 45.3°F7.4°C 71% 4.0 mph NNE6.4 kmh NNE 12.0 mph19.3 kmh 30.23 in1023.7 mb 0.00 in0.0 mm 0.00 in0.0 mm 0.00 in0.0 mm
04:00 AM 53.8°F12.1°C 45.7°F7.6°C 74% 5.0 mph E8.0 kmh E 11.0 mph17.7 kmh 30.23 in1023.7 mb 0.00 in0.0 mm 0.00 in0.0 mm 0.00 in0.0 mm
04:30 AM 53.8°F12.1°C 45.7°F7.6°C 74% 3.0 mph NE4.8 kmh NE 8.0 mph12.9 kmh 30.24 in1024.0 mb 0.00 in0.0 mm 0.00 in0.0 mm 0.00 in0.0 mm
05:00 AM 53.4°F11.9°C 45.1°F7.3°C 73% 2.0 mph NW3.2 kmh NW 7.0 mph11.3 kmh 30.23 in1023.7 mb 0.00 in0.0 mm 0.00 in0.0 mm 0.00 in0.0 mm
05:30 AM 51.4°F10.8°C 45.1°F7.3°C 79% 2.0 mph WSW3.2 kmh WSW 7.0 mph11.3 kmh 30.23 in1023.7 mb 0.00 in0.0 mm 0.00 in0.0 mm 0.00 in0.0 mm
06:00 AM 50.9°F10.5°C 44.6°F7.0°C 79% 2.0 mph NE3.2 kmh NE 5.0 mph8.0 kmh 30.23 in1023.7 mb 0.00 in0.0 mm 0.00 in0.0 mm 0.00 in0.0 mm
06:30 AM 53.4°F11.9°C 43.9°F6.6°C 70% 2.0 mph NE3.2 kmh NE 5.0 mph8.0 kmh 30.23 in1023.7 mb 0.00 in0.0 mm 0.00 in0.0 mm 0.00 in0.0 mm
07:00 AM 52.5°F11.4°C 44.1°F6.7°C 73% 1.0 mph WSW1.6 kmh WSW 2.0 mph3.2 kmh 30.24 in1024.0 mb 0.00 in0.0 mm 0.00 in0.0 mm 0.00 in0.0 mm
07:30 AM 53.2°F11.8°C 44.1°F6.7°C 71% 2.0 mph NE3.2 kmh NE 3.0 mph4.8 kmh 30.25 in1024.4 mb 0.00 in0.0 mm 0.00 in0.0 mm 0.00 in0.0 mm
08:00 AM 51.3°F10.7°C 43.5°F6.4°C 75% Calm Calm 2.0 mph3.2 kmh 30.25 in1024.4 mb 0.00 in0.0 mm 0.00 in0.0 mm 0.00 in0.0 mm
08:30 AM 52.3°F11.3°C 43.9°F6.6°C 73% 3.0 mph NE4.8 kmh NE 5.0 mph8.0 kmh 30.26 in1024.7 mb 0.00 in0.0 mm 0.00 in0.0 mm 0.00 in0.0 mm
09:00 AM 54.1°F12.3°C 44.2°F6.8°C 69% Calm Calm 3.0 mph4.8 kmh 30.26 in1024.7 mb 0.00 in0.0 mm 0.00 in0.0 mm 0.00 in0.0 mm
09:30 AM 55.4°F13.0°C 45.9°F7.7°C 70% 1.0 mph WNW1.6 kmh WNW 4.0 mph6.4 kmh 30.26 in1024.7 mb 0.00 in0.0 mm 0.00 in0.0 mm 0.00 in0.0 mm
10:00 AM 56.8°F13.8°C 46.4°F8.0°C 68% 1.0 mph S1.6 kmh S 6.0 mph9.7 kmh 30.27 in1025.1 mb 0.00 in0.0 mm 0.00 in0.0 mm 0.00 in0.0 mm
10:30 AM 58.6°F14.8°C 46.9°F8.3°C 65% 1.0 mph W1.6 kmh W 5.0 mph8.0 kmh 30.27 in1025.1 mb 0.00 in0.0 mm 0.00 in0.0 mm 0.00 in0.0 mm
11:00 AM 58.8°F14.9°C 47.5°F8.6°C 66% 2.0 mph N3.2 kmh N 12.0 mph19.3 kmh 30.28 in1025.4 mb 0.00 in0.0 mm 0.00 in0.0 mm 0.00 in0.0 mm
12:00 PM 60.1°F15.6°C 48.9°F9.4°C 67% 2.0 mph NW3.2 kmh NW 8.0 mph12.9 kmh 30.27 in1025.1 mb 0.00 in0.0 mm 0.00 in0.0 mm 0.00 in0.0 mm
12:30 PM 62.1°F16.7°C 48.9°F9.4°C 62% 1.0 mph W1.6 kmh W 5.0 mph8.0 kmh 30.27 in1025.1 mb 0.00 in0.0 mm 0.00 in0.0 mm 0.00 in0.0 mm
01:00 PM 63.1°F17.3°C 48.9°F9.4°C 60% 1.0 mph S1.6 kmh S 5.0 mph8.0 kmh 30.27 in1025.1 mb 0.00 in0.0 mm 0.00 in0.0 mm 0.00 in0.0 mm
01:30 PM 64.8°F18.2°C 49.6°F9.8°C 58% 1.0 mph WSW1.6 kmh WSW 4.0 mph6.4 kmh 30.26 in1024.7 mb 0.00 in0.0 mm 0.00 in0.0 mm 0.00 in0.0 mm
02:00 PM 65.3°F18.5°C 48.2°F9.0°C 54% 1.0 mph WSW1.6 kmh WSW 7.0 mph11.3 kmh 30.25 in1024.4 mb 0.00 in0.0 mm 0.00 in0.0 mm 0.00 in0.0 mm
02:30 PM 65.8°F18.8°C 48.7°F9.3°C 54% 1.0 mph W1.6 kmh W 3.0 mph4.8 kmh 30.25 in1024.4 mb 0.00 in0.0 mm 0.00 in0.0 mm 0.00 in0.0 mm
03:00 PM 66.2°F19.0°C 49.1°F9.5°C 54% 1.0 mph WNW1.6 kmh WNW 7.0 mph11.3 kmh 30.25 in1024.4 mb 0.00 in0.0 mm 0.00 in0.0 mm 0.00 in0.0 mm
03:30 PM 65.1°F18.4°C 48.9°F9.4°C 56% Calm Calm 2.0 mph3.2 kmh 30.25 in1024.4 mb 0.00 in0.0 mm 0.00 in0.0 mm 0.00 in0.0 mm
04:00 PM 63.7°F17.6°C 49.1°F9.5°C 59% 2.0 mph WNW3.2 kmh WNW 10.0 mph16.1 kmh 30.26 in1024.7 mb 0.00 in0.0 mm 0.00 in0.0 mm 0.00 in0.0 mm
04:30 PM 63.1°F17.3°C 48.6°F9.2°C 59% 1.0 mph WNW1.6 kmh WNW 6.0 mph9.7 kmh 30.26 in1024.7 mb 0.00 in0.0 mm 0.00 in0.0 mm 0.00 in0.0 mm
05:00 PM 61.7°F16.5°C 48.9°F9.4°C 63% 1.0 mph SW1.6 kmh SW 4.0 mph6.4 kmh 30.27 in1025.1 mb 0.00 in0.0 mm 0.00 in0.0 mm 0.00 in0.0 mm
05:30 PM 59.4°F15.2°C 50.7°F10.4°C 73% Calm Calm 1.0 mph1.6 kmh 30.27 in1025.1 mb 0.00 in0.0 mm 0.00 in0.0 mm 0.00 in0.0 mm
06:00 PM 58.3°F14.6°C 50.7°F10.4°C 76% 1.0 mph SE1.6 kmh SE 4.0 mph6.4 kmh 30.27 in1025.1 mb 0.00 in0.0 mm 0.00 in0.0 mm 0.00 in0.0 mm
06:30 PM 55.2°F12.9°C 49.6°F9.8°C 81% 1.0 mph ESE1.6 kmh ESE 3.0 mph4.8 kmh 30.29 in1025.7 mb 0.00 in0.0 mm 0.00 in0.0 mm 0.00 in0.0 mm
07:00 PM 54.7°F12.6°C 48.9°F9.4°C 81% 1.0 mph E1.6 kmh E 2.0 mph3.2 kmh 30.29 in1025.7 mb 0.00 in0.0 mm 0.00 in0.0 mm 0.00 in0.0 mm
07:30 PM 55.0°F12.8°C 49.1°F9.5°C 80% Calm Calm 1.0 mph1.6 kmh 30.30 in1026.1 mb 0.00 in0.0 mm 0.00 in0.0 mm 0.00 in0.0 mm
08:00 PM 55.0°F12.8°C 49.6°F9.8°C 82% 1.0 mph NE1.6 kmh NE 3.0 mph4.8 kmh 30.30 in1026.1 mb 0.00 in0.0 mm 0.00 in0.0 mm 0.00 in0.0 mm
08:30 PM 55.4°F13.0°C 48.9°F9.4°C 79% Calm Calm 2.0 mph3.2 kmh 30.30 in1026.1 mb 0.00 in0.0 mm 0.00 in0.0 mm 0.00 in0.0 mm
09:00 PM 54.7°F12.6°C 48.6°F9.2°C 80% Calm Calm 2.0 mph3.2 kmh 30.30 in1026.1 mb 0.00 in0.0 mm 0.00 in0.0 mm 0.00 in0.0 mm
09:30 PM 52.2°F11.2°C 48.4°F9.1°C 87% 2.0 mph ESE3.2 kmh ESE 5.0 mph8.0 kmh 30.30 in1026.1 mb 0.00 in0.0 mm 0.00 in0.0 mm 0.00 in0.0 mm
10:00 PM 52.3°F11.3°C 48.4°F9.1°C 86% 2.0 mph E3.2 kmh E 8.0 mph12.9 kmh 30.31 in1026.4 mb 0.00 in0.0 mm 0.00 in0.0 mm 0.00 in0.0 mm
10:30 PM 52.2°F11.2°C 48.7°F9.3°C 88% Calm Calm 2.0 mph3.2 kmh 30.31 in1026.4 mb 0.00 in0.0 mm 0.00 in0.0 mm 0.00 in0.0 mm
11:00 PM 52.3°F11.3°C 48.6°F9.2°C 87% 1.0 mph NE1.6 kmh NE 3.0 mph4.8 kmh 30.31 in1026.4 mb 0.00 in0.0 mm 0.00 in0.0 mm 0.00 in0.0 mm
11:30 PM 53.6°F12.0°C 48.6°F9.2°C 83% 1.0 mph NE1.6 kmh NE 2.0 mph3.2 kmh 30.32 in1026.8 mb 0.00 in0.0 mm 0.00 in0.0 mm 0.00 in0.0 mm